Seattle, Washington
Traffic Map
Current Weather Conditions
Seattle, Washington
Overcast
Overcast
17°
Feels Like: 17°
Wind Chill: 17° Ceiling: 3500
Heat Index: 17° Visibility: 10mi
Dew Point: 12° Wind: 12mph
Humidity: 75% Direction: 300° (WNW)
Pressure: 30.17in Gusts: 0mph
Raw Report DataKBFI 271453Z 30010KT 10SM FEW018 OVC035 17/12 A3017 RMK AO2 WSHFT 1439 SLP214 60000 T01670122 51012
Traffic Incident Summary
Active as of:
Severity:
Category:
InformationThere was an issue retrieving the traffic information for this location. Please try a different location or try again shortly.
Advertisements
Track Severe Weather on mobile